createdAt,value
2023-02-11T00:02:18.574Z,53.77
2023-02-11T00:04:46.384Z,53.40
2023-02-11T00:07:14.247Z,55.10
2023-02-11T00:09:42.307Z,53.70
2023-02-11T00:12:10.446Z,54.33
2023-02-11T00:14:38.196Z,51.80
2023-02-11T00:17:07.874Z,50.03
2023-02-11T00:19:35.593Z,52.23
2023-02-11T00:22:03.265Z,53.40
2023-02-11T00:24:31.108Z,52.83
2023-02-11T00:27:00.484Z,51.47
2023-02-11T00:29:31.363Z,48.47
2023-02-11T00:32:06.342Z,50.43
2023-02-11T00:34:38.813Z,49.77
2023-02-11T00:37:08.898Z,47.90
2023-02-11T00:39:41.153Z,51.50
2023-02-11T00:42:19.554Z,47.53
2023-02-11T00:44:49.752Z,49.17
2023-02-11T00:47:19.341Z,48.73
2023-02-11T00:49:49.066Z,42.47
2023-02-11T00:52:19.594Z,47.00
2023-02-11T00:54:47.599Z,44.10
2023-02-11T00:57:15.757Z,44.53
2023-02-11T00:59:43.467Z,45.70
2023-02-11T01:02:11.366Z,45.03
2023-02-11T01:04:39.473Z,41.67
2023-02-11T01:07:10.492Z,40.73
2023-02-11T01:09:39.217Z,41.80
2023-02-11T01:12:07.396Z,40.53
2023-02-11T01:14:35.152Z,38.80
2023-02-11T01:17:02.863Z,38.93
2023-02-11T01:19:30.755Z,40.53
2023-02-11T01:21:58.543Z,40.13
2023-02-11T01:24:27.623Z,39.83
2023-02-11T01:26:55.436Z,36.40
2023-02-11T01:29:25.316Z,36.80
2023-02-11T01:31:55.507Z,36.20
2023-02-11T01:34:23.281Z,35.80
2023-02-11T01:36:51.062Z,36.03
2023-02-11T01:39:18.766Z,39.63
2023-02-11T01:41:49.364Z,37.13
2023-02-11T01:44:28.467Z,37.13
2023-02-11T01:46:56.684Z,35.53
2023-02-11T01:49:28.296Z,35.97
2023-02-11T01:52:00.505Z,35.80
2023-02-11T01:54:50.602Z,39.40
2023-02-11T01:57:29.797Z,39.87
2023-02-11T02:00:12.276Z,39.63
2023-02-11T02:02:50.044Z,38.17
2023-02-11T02:05:25.358Z,39.47
2023-02-11T02:07:59.773Z,39.23
2023-02-11T02:10:29.868Z,38.23
2023-02-11T02:12:59.408Z,41.07
2023-02-11T02:15:30.099Z,41.40
2023-02-11T02:18:09.313Z,44.63
2023-02-11T02:21:19.937Z,41.33
2023-02-11T02:24:17.393Z,36.70
2023-02-11T02:27:04.221Z,34.67
2023-02-11T02:30:00.757Z,38.43
2023-02-11T02:32:44.088Z,36.93
2023-02-11T02:35:20.236Z,34.13
2023-02-11T02:37:52.556Z,33.63
2023-02-11T02:40:24.808Z,36.00
2023-02-11T02:42:53.808Z,36.13
2023-02-11T02:45:22.225Z,37.33
2023-02-11T02:47:51.655Z,40.93
2023-02-11T02:50:27.609Z,36.20
2023-02-11T02:53:05.634Z,35.83
2023-02-11T02:55:46.401Z,34.23
2023-02-11T02:58:34.674Z,35.00
2023-02-11T03:01:09.424Z,38.43
2023-02-11T03:03:46.170Z,35.40
2023-02-11T03:06:22.879Z,34.40
2023-02-11T03:08:56.585Z,35.60
2023-02-11T03:11:25.548Z,38.33
2023-02-11T03:13:55.870Z,39.80
2023-02-11T03:16:27.249Z,36.97
2023-02-11T03:19:04.102Z,34.83
2023-02-11T03:21:33.930Z,34.27
2023-02-11T03:24:06.798Z,42.13
2023-02-11T03:26:39.144Z,37.37
2023-02-11T03:29:14.423Z,37.23
2023-02-11T03:31:52.161Z,36.13
2023-02-11T03:34:28.567Z,37.50
2023-02-11T03:37:01.246Z,34.77
2023-02-11T03:39:35.060Z,38.63
2023-02-11T03:42:05.187Z,36.70
2023-02-11T03:44:38.455Z,37.23
2023-02-11T03:47:11.458Z,36.97
2023-02-11T03:49:43.223Z,38.67
2023-02-11T03:52:12.811Z,35.00
2023-02-11T03:54:44.193Z,40.67
2023-02-11T03:57:11.935Z,38.53
2023-02-11T03:59:54.266Z,38.53
2023-02-11T04:02:23.344Z,40.57
2023-02-11T04:04:52.476Z,39.47
2023-02-11T04:07:20.462Z,40.70
2023-02-11T04:09:48.304Z,39.83
2023-02-11T04:12:16.251Z,38.43
2023-02-11T04:14:43.953Z,39.83
2023-02-11T04:17:12.209Z,44.93
2023-02-11T04:19:40.055Z,42.90
2023-02-11T04:22:09.276Z,40.13
2023-02-11T04:24:37.236Z,38.00
2023-02-11T04:27:05.111Z,42.27
2023-02-11T04:29:33.052Z,42.17
2023-02-11T04:32:00.833Z,43.33
2023-02-11T04:34:28.940Z,43.30
2023-02-11T04:36:56.623Z,43.37
2023-02-11T04:39:25.925Z,41.17
2023-02-11T04:41:53.637Z,44.33
2023-02-11T04:44:21.593Z,42.03
2023-02-11T04:46:49.322Z,41.13
2023-02-11T04:49:17.771Z,42.40
2023-02-11T04:51:49.205Z,36.37
2023-02-11T04:54:17.752Z,38.53
2023-02-11T04:56:46.990Z,39.37
2023-02-11T04:59:14.765Z,34.97
2023-02-11T05:01:42.744Z,38.80
2023-02-11T05:04:10.532Z,35.20
2023-02-11T05:06:39.711Z,34.53
2023-02-11T05:09:07.677Z,37.80
2023-02-11T05:11:36.596Z,39.57
2023-02-11T05:14:06.168Z,37.77
2023-02-11T05:16:34.220Z,35.87
2023-02-11T05:19:02.122Z,34.27
2023-02-11T05:21:30.202Z,39.80
2023-02-11T05:23:57.925Z,35.77
2023-02-11T05:26:25.773Z,34.47
2023-02-11T05:28:53.596Z,35.23
2023-02-11T05:31:22.657Z,37.67
2023-02-11T05:33:50.318Z,29.97
2023-02-11T05:36:18.286Z,33.23
2023-02-11T05:38:46.041Z,30.97
2023-02-11T05:41:13.969Z,33.17
2023-02-11T05:43:41.729Z,32.07
2023-02-11T05:46:09.583Z,33.10
2023-02-11T05:48:39.032Z,35.37
2023-02-11T05:51:07.003Z,31.97
2023-02-11T05:53:34.784Z,32.83
2023-02-11T05:56:03.026Z,34.30
2023-02-11T05:58:30.785Z,32.70
2023-02-11T06:00:58.686Z,32.60
2023-02-11T06:03:26.558Z,32.17
2023-02-11T06:05:55.705Z,35.83
2023-02-11T06:08:23.423Z,35.97
2023-02-11T06:10:51.355Z,33.90
2023-02-11T06:13:19.777Z,35.60
2023-02-11T06:15:56.932Z,32.53
2023-02-11T06:18:24.764Z,36.37
2023-02-11T06:20:52.499Z,33.63
2023-02-11T06:23:21.618Z,34.97
2023-02-11T06:25:49.880Z,38.03
2023-02-11T06:28:18.336Z,39.00
2023-02-11T06:30:46.059Z,36.43
2023-02-11T06:33:14.685Z,38.07
2023-02-11T06:35:42.650Z,37.50
2023-02-11T06:38:10.518Z,42.60
